Time;durP1;ratioP1;P1;durP2;ratioP2;P2;SDS_P1;SDS_P2;PMS_P1;PMS_P2;Temp;Humidity;BMP_temperature;BMP_pressure;BME280_temperature;BME280_humidity;BME280_pressure;Samples;Min_cycle;Max_cycle;Signal;HPM_P1;HPM_P2
2022/12/24 00:00:31;;;;;;;10.00;6.25;;;;;;;;;;5072607;28;20139;-65
2022/12/24 00:02:57;;;;;;;9.35;6.03;;;;;;;;;;5066203;28;20049;-72
2022/12/24 00:05:23;;;;;;;10.38;6.03;;;;;;;;;;5057204;28;20049;-69
2022/12/24 00:07:48;;;;;;;10.32;6.03;;;14.50;98.10;;;;;;5074677;28;20513;-68
2022/12/24 00:10:14;;;;;;;9.90;6.25;;;14.80;98.60;;;;;;5074764;28;20057;-67
2022/12/24 00:12:40;;;;;;;9.32;6.05;;;14.80;97.00;;;;;;5072201;28;20036;-67
2022/12/24 00:15:06;;;;;;;10.68;6.03;;;14.80;98.30;;;;;;5075089;28;20082;-71
2022/12/24 00:17:32;;;;;;;9.75;5.88;;;14.80;97.10;;;;;;5073643;28;20052;-66
2022/12/24 00:19:58;;;;;;;8.57;5.70;;;14.60;98.20;;;;;;5075094;28;20036;-67
2022/12/24 00:22:24;;;;;;;9.48;5.95;;;14.60;98.30;;;;;;5054827;28;20403;-67
2022/12/24 00:24:49;;;;;;;9.07;5.85;;;14.90;98.30;;;;;;5035057;28;20045;-67
2022/12/24 00:27:15;;;;;;;10.18;5.75;;;15.10;98.20;;;;;;5041443;28;20041;-67
2022/12/24 00:29:41;;;;;;;9.95;6.22;;;14.60;96.90;;;;;;5034980;28;20128;-67
2022/12/24 00:32:09;;;;;;;9.30;5.47;;;14.90;98.10;;;;;;5043394;28;20063;-67
2022/12/24 00:34:37;;;;;;;8.82;5.68;;;15.00;98.20;;;;;;5074474;28;20048;-67
2022/12/24 00:37:04;;;;;;;8.43;5.72;;;14.90;98.10;;;;;;5063816;28;20044;-67
2022/12/24 00:39:30;;;;;;;10.75;6.25;;;14.90;98.00;;;;;;5051308;28;20041;-67
2022/12/24 00:41:56;;;;;;;9.02;6.10;;;;;;;;;;5055747;28;20478;-65
2022/12/24 00:44:21;;;;;;;12.10;5.80;;;14.90;98.00;;;;;;5070799;28;20102;-68
2022/12/24 00:46:47;;;;;;;8.30;5.32;;;14.90;98.20;;;;;;5073148;28;20048;-71
2022/12/24 00:49:13;;;;;;;9.07;5.75;;;14.90;98.20;;;;;;5074099;28;20056;-67
2022/12/24 00:51:39;;;;;;;9.18;5.68;;;15.00;98.10;;;;;;5068556;28;20127;-67
2022/12/24 00:54:05;;;;;;;7.95;5.03;;;14.90;98.10;;;;;;5066667;28;20136;-67
2022/12/24 00:56:31;;;;;;;9.45;5.15;;;14.90;98.10;;;;;;5053147;28;20187;-68
2022/12/24 00:58:57;;;;;;;8.55;5.38;;;14.90;98.10;;;;;;5050380;28;20077;-67
2022/12/24 01:01:23;;;;;;;7.90;4.97;;;15.00;97.00;;;;;;5034394;28;20179;-67
2022/12/24 01:03:49;;;;;;;8.27;5.55;;;14.90;98.10;;;;;;5070041;28;20127;-67
2022/12/24 01:06:19;;;;;;;8.57;5.47;;;14.80;98.00;;;;;;5070546;28;20486;-68
2022/12/24 01:08:45;;;;;;;8.80;5.00;;;;;;;;;;5034031;28;20059;-69
2022/12/24 01:11:11;;;;;;;11.25;5.50;;;15.00;98.40;;;;;;5054144;28;20136;-69
2022/12/24 01:13:38;;;;;;;6.95;4.65;;;15.00;97.00;;;;;;5043880;28;20124;-67
2022/12/24 01:16:14;;;;;;;8.18;5.05;;;14.90;98.10;;;;;;5064879;28;20041;-67
2022/12/24 01:18:40;;;;;;;8.52;5.15;;;14.80;98.10;;;;;;5020174;28;20057;-67
2022/12/24 01:21:06;;;;;;;7.60;4.95;;;15.10;98.20;;;;;;5033942;28;20041;-68
2022/12/24 01:23:32;;;;;;;8.68;5.13;;;15.00;97.00;;;;;;5049512;28;20054;-67
2022/12/24 01:26:01;;;;;;;8.20;4.80;;;;;;;;;;5072776;28;20458;-67
2022/12/24 01:28:27;;;;;;;8.63;5.32;;;14.90;98.30;;;;;;5072597;28;20055;-68
2022/12/24 01:30:53;;;;;;;7.25;4.50;;;14.70;97.00;;;;;;5047967;28;20041;-67
2022/12/24 01:33:18;;;;;;;8.30;5.10;;;15.00;98.10;;;;;;5036545;28;20044;-69
2022/12/24 01:35:44;;;;;;;9.02;4.80;;;14.80;97.00;;;;;;5073477;28;20402;-68
2022/12/24 01:38:13;;;;;;;12.55;4.78;;;15.10;98.20;;;;;;5073424;28;20052;-68
2022/12/24 01:43:23;;;;;;;7.13;4.43;;;14.90;97.90;;;;;;5055436;28;20127;-69
2022/12/24 01:45:51;;;;;;;7.85;5.32;;;14.90;98.20;;;;;;5072095;28;20049;-68
2022/12/24 01:48:24;;;;;;;8.85;4.85;;;14.80;96.80;;;;;;5041166;28;20480;-67
2022/12/24 01:50:53;;;;;;;7.63;4.40;;;14.90;98.10;;;;;;5033571;28;20064;-68
2022/12/24 01:53:19;;;;;;;7.85;4.80;;;14.90;97.00;;;;;;5032553;28;20045;-68
2022/12/24 01:55:45;;;;;;;7.45;4.93;;;15.10;98.20;;;;;;5069684;28;20074;-67
2022/12/24 01:58:10;;;;;;;7.97;4.80;;;15.00;98.30;;;;;;5041491;28;20046;-67
2022/12/24 02:00:36;;;;;;;7.95;4.43;;;14.60;98.00;;;;;;5015925;28;20072;-69
2022/12/24 02:03:02;;;;;;;7.63;4.57;;;15.20;98.20;;;;;;5033182;28;20053;-68
2022/12/24 02:05:31;;;;;;;7.80;4.70;;;15.00;96.70;;;;;;5043808;28;20041;-67
2022/12/24 02:07:58;;;;;;;7.93;4.40;;;15.00;98.10;;;;;;5051900;28;20083;-69
2022/12/24 02:10:24;;;;;;;7.30;4.63;;;14.90;96.90;;;;;;5069541;28;20118;-68
2022/12/24 02:12:51;;;;;;;6.70;3.97;;;14.80;98.00;;;;;;5075943;28;20098;-69
2022/12/24 02:15:17;;;;;;;8.35;5.20;;;14.80;96.90;;;;;;5074702;28;20546;-68
2022/12/24 02:17:54;;;;;;;7.00;4.32;;;15.00;96.10;;;;;;5059361;28;20033;-68
2022/12/24 02:20:41;;;;;;;7.07;4.43;;;15.10;96.20;;;;;;5075331;28;20059;-72
2022/12/24 02:23:19;;;;;;;6.85;4.38;;;15.20;98.10;;;;;;5036977;28;20037;-68
2022/12/24 02:25:44;;;;;;;7.63;4.35;;;15.00;96.80;;;;;;5063472;28;20040;-68
2022/12/24 02:28:36;;;;;;;7.55;4.63;;;14.90;98.00;;;;;;5076040;28;20082;-69
2022/12/24 02:31:38;;;;;;;6.95;4.28;;;15.00;96.20;;;;;;5076026;28;20072;-68
2022/12/24 02:34:08;;;;;;;6.88;3.97;;;14.90;96.10;;;;;;4961791;28;20101;-70
2022/12/24 02:36:40;;;;;;;7.05;4.55;;;15.10;96.90;;;;;;4978203;28;20397;-68
2022/12/24 02:39:19;;;;;;;8.13;4.38;;;15.10;96.80;;;;;;4980477;28;20043;-69
2022/12/24 02:42:07;;;;;;;7.60;4.85;;;15.00;96.70;;;;;;4959381;28;20488;-68
2022/12/24 02:44:42;;;;;;;7.25;4.50;;;15.20;98.10;;;;;;4962475;28;20055;-67
2022/12/24 02:47:08;;;;;;;7.50;4.55;;;15.00;98.10;;;;;;4964037;28;20054;-67
2022/12/24 02:49:35;;;;;;;7.07;4.45;;;15.00;98.00;;;;;;4962831;28;20051;-71
2022/12/24 02:52:00;;;;;;;6.78;4.55;;;15.00;98.00;;;;;;4993673;28;20501;-68
2022/12/24 02:54:26;;;;;;;6.85;4.30;;;14.90;98.00;;;;;;4958400;28;20054;-70
2022/12/24 02:57:07;;;;;;;6.80;4.50;;;14.90;98.00;;;;;;4994383;28;20059;-71
2022/12/24 02:59:45;;;;;;;7.20;4.68;;;15.20;98.10;;;;;;4994957;28;20042;-71
2022/12/24 03:02:27;;;;;;;7.53;4.88;;;15.00;96.90;;;;;;4980016;28;20117;-70
2022/12/24 03:05:17;;;;;;;7.17;4.57;;;14.80;97.90;;;;;;4961613;28;20093;-71
2022/12/24 03:07:44;;;;;;;7.35;4.32;;;14.80;97.90;;;;;;4985885;28;20946;-70
2022/12/24 03:10:17;;;;;;;7.00;4.72;;;14.90;96.80;;;;;;5029977;28;20052;-68
2022/12/24 03:12:44;;;;;;;;;;;14.90;96.80;;;;;;5028293;28;20033;-68
2022/12/24 03:15:12;;;;;;;7.57;4.68;;;14.80;96.80;;;;;;5051154;28;19921;-71
2022/12/24 03:17:38;;;;;;;6.88;4.45;;;;;;;;;;5038596;28;20032;-68
2022/12/24 03:20:05;;;;;;;7.32;4.65;;;14.90;98.00;;;;;;5053904;28;20049;-67
2022/12/24 03:22:32;;;;;;;7.53;4.45;;;14.90;96.80;;;;;;5055941;28;20079;-71
2022/12/24 03:24:58;;;;;;;7.22;4.72;;;;;;;;;;5036229;28;20033;-71
2022/12/24 03:27:28;;;;;;;7.90;5.10;;;14.90;96.80;;;;;;5074806;28;20044;-71
2022/12/24 03:29:53;;;;;;;7.47;5.18;;;15.00;97.90;;;;;;5032552;28;20459;-69
2022/12/24 03:32:29;;;;;;;9.27;4.82;;;15.00;98.00;;;;;;5037194;28;20077;-70
2022/12/24 03:34:55;;;;;;;7.45;5.15;;;15.10;98.00;;;;;;5055956;28;20045;-67
2022/12/24 03:37:22;;;;;;;7.95;5.20;;;15.10;98.00;;;;;;5072057;28;20036;-68
2022/12/24 03:39:48;;;;;;;7.75;4.82;;;;;;;;;;5075629;28;20044;-68
2022/12/24 03:42:13;;;;;;;7.45;4.80;;;14.90;97.90;;;;;;5074437;28;20052;-68
2022/12/24 03:44:39;;;;;;;8.48;5.50;;;14.80;97.80;;;;;;5071328;28;20048;-68
2022/12/24 03:47:05;;;;;;;7.03;4.68;;;14.80;98.00;;;;;;5044872;28;20128;-67
2022/12/24 03:49:31;;;;;;;7.03;4.75;;;15.00;97.90;;;;;;5035647;28;20069;-68
2022/12/24 03:51:56;;;;;;;6.65;4.65;;;14.90;97.90;;;;;;5035239;28;20061;-68
2022/12/24 03:54:22;;;;;;;7.18;4.95;;;15.00;97.90;;;;;;5035357;28;20183;-66
2022/12/24 03:56:48;;;;;;;7.28;4.82;;;15.10;97.90;;;;;;5066851;28;20105;-67
2022/12/24 03:59:14;;;;;;;7.15;4.68;;;15.00;96.70;;;;;;5058493;28;20103;-67
2022/12/24 04:01:40;;;;;;;8.15;4.88;;;14.90;97.90;;;;;;5075455;28;20080;-67
2022/12/24 04:04:06;;;;;;;7.90;5.40;;;15.00;98.20;;;;;;5045928;28;20045;-67
2022/12/24 04:06:31;;;;;;;7.20;4.75;;;15.00;97.90;;;;;;5054314;28;20055;-67
2022/12/24 04:09:03;;;;;;;7.07;4.65;;;15.00;98.00;;;;;;5057726;28;20140;-68
2022/12/24 04:11:30;;;;;;;7.90;5.07;;;15.20;96.80;;;;;;5037703;28;20046;-68
2022/12/24 04:13:56;;;;;;;7.32;4.82;;;15.20;98.00;;;;;;5034984;28;20124;-67
2022/12/24 04:16:22;;;;;;;9.13;5.40;;;;;;;;;;5045432;28;20123;-67
2022/12/24 04:18:47;;;;;;;9.30;5.22;;;14.90;97.90;;;;;;5066640;28;20037;-67
2022/12/24 04:21:13;;;;;;;7.80;5.40;;;15.10;96.80;;;;;;5039041;28;20112;-71
2022/12/24 04:23:39;;;;;;;7.97;5.10;;;15.20;98.00;;;;;;5066338;28;20041;-67
2022/12/24 04:26:06;;;;;;;9.15;5.65;;;;;;;;;;5072490;28;20128;-71
2022/12/24 04:28:32;;;;;;;8.27;5.70;;;15.00;96.80;;;;;;5074869;28;20070;-68
2022/12/24 04:31:02;;;;;;;7.53;5.10;;;15.00;96.60;;;;;;5074933;28;20466;-68
2022/12/24 04:33:28;;;;;;;7.70;5.20;;;15.00;96.70;;;;;;5066149;28;20040;-69
2022/12/24 04:35:54;;;;;;;7.82;5.47;;;;;;;;;;5047486;28;20064;-68
2022/12/24 04:38:20;;;;;;;7.78;4.78;;;14.90;97.90;;;;;;5041077;28;20120;-67
2022/12/24 04:40:45;;;;;;;8.00;5.32;;;15.20;97.70;;;;;;5034463;28;20156;-68
2022/12/24 04:43:11;;;;;;;8.10;5.43;;;15.00;97.90;;;;;;5034184;28;20049;-69
2022/12/24 04:45:37;;;;;;;7.55;5.10;;;;;;;;;;5053457;28;20076;-67
2022/12/24 04:48:03;;;;;;;7.55;4.97;;;14.80;98.00;;;;;;5070912;28;20036;-67
2022/12/24 04:50:29;;;;;;;7.55;4.80;;;14.90;97.90;;;;;;5074139;28;20048;-68
2022/12/24 04:52:54;;;;;;;7.82;4.63;;;15.20;98.00;;;;;;5074061;28;20049;-70
2022/12/24 04:55:20;;;;;;;7.40;4.63;;;15.00;97.90;;;;;;5040913;28;20153;-68
2022/12/24 04:57:46;;;;;;;8.13;4.68;;;15.00;97.90;;;;;;5059119;28;20056;-69
2022/12/24 05:00:12;;;;;;;7.20;4.53;;;15.20;98.10;;;;;;5048769;28;20049;-68
2022/12/24 05:02:38;;;;;;;7.65;4.65;;;15.10;98.00;;;;;;5034663;28;20049;-68
2022/12/24 05:05:04;;;;;;;7.22;4.80;;;15.40;97.80;;;;;;5058371;28;20040;-68
2022/12/24 05:07:30;;;;;;;7.10;4.70;;;;;;;;;;5056113;28;20057;-67
2022/12/24 05:09:57;;;;;;;7.30;4.25;;;15.20;98.10;;;;;;5051623;28;20045;-68
2022/12/24 05:12:23;;;;;;;7.28;4.00;;;;;;;;;;5036847;28;20049;-65
2022/12/24 05:14:49;;;;;;;6.40;4.22;;;15.20;98.00;;;;;;5054028;28;20094;-68
2022/12/24 05:17:15;;;;;;;6.45;3.95;;;15.30;96.90;;;;;;5065153;28;20045;-67
2022/12/24 05:19:41;;;;;;;6.95;3.58;;;;;;;;;;5073990;28;20037;-66
2022/12/24 05:27:35;;;;;;;6.63;3.53;;;14.80;98.00;;;;;;5044201;28;20491;-68
2022/12/24 05:30:01;;;;;;;8.63;4.05;;;14.80;97.90;;;;;;5049417;28;20044;-72
2022/12/24 05:32:27;;;;;;;8.40;3.63;;;15.00;96.90;;;;;;5073877;28;20071;-67
2022/12/24 05:34:53;;;;;;;8.57;3.60;;;15.20;98.10;;;;;;5073752;28;20051;-67
2022/12/24 05:37:19;;;;;;;7.88;3.72;;;;;;;;;;5071138;28;20536;-68
2022/12/24 05:39:45;;;;;;;7.03;3.13;;;15.10;98.00;;;;;;5070771;28;20048;-67
2022/12/24 05:42:10;;;;;;;7.80;3.78;;;15.10;98.00;;;;;;5073344;28;20064;-68
2022/12/24 05:44:36;;;;;;;8.95;3.28;;;15.10;98.10;;;;;;5068619;28;20048;-67
2022/12/24 05:47:02;;;;;;;8.23;3.88;;;;;;;;;;5033506;28;20046;-71
2022/12/24 05:49:29;;;;;;;8.10;2.80;;;15.10;98.10;;;;;;5055661;28;20127;-69
2022/12/24 05:51:55;;;;;;;7.50;2.90;;;15.00;98.00;;;;;;5053164;28;20045;-69
2022/12/24 05:54:21;;;;;;;10.18;3.67;;;14.90;98.00;;;;;;5053154;28;20047;-68
2022/12/24 05:56:46;;;;;;;9.27;3.28;;;15.30;98.10;;;;;;5053518;28;20126;-66
2022/12/24 05:59:12;;;;;;;10.75;3.58;;;15.30;96.90;;;;;;5066094;28;20483;-66
2022/12/24 06:01:38;;;;;;;11.77;4.20;;;14.90;98.10;;;;;;5067676;28;20052;-67
2022/12/24 06:04:04;;;;;;;9.85;3.28;;;15.10;97.00;;;;;;5054189;28;20375;-66
2022/12/24 06:06:30;;;;;;;11.43;3.25;;;;;;;;;;5068290;28;20056;-67
2022/12/24 06:08:56;;;;;;;8.13;2.65;;;15.20;98.20;;;;;;5049604;28;20049;-70
2022/12/24 06:11:23;;;;;;;9.07;2.95;;;15.10;97.00;;;;;;5070839;28;20052;-71
2022/12/24 06:13:49;;;;;;;13.25;3.22;;;15.00;98.20;;;;;;5072404;28;20079;-70
2022/12/24 06:16:16;;;;;;;10.98;3.72;;;15.00;98.30;;;;;;5073405;28;20068;-71
2022/12/24 06:18:42;;;;;;;10.65;3.20;;;15.10;98.10;;;;;;5053768;28;20383;-67
2022/12/24 06:21:08;;;;;;;11.45;3.13;;;;;;;;;;5052372;28;20040;-68
2022/12/24 06:23:36;;;;;;;13.82;3.92;;;15.00;97.00;;;;;;5067495;28;20143;-66
2022/12/24 06:26:02;;;;;;;11.07;3.30;;;15.00;98.20;;;;;;5071757;28;20055;-68
2022/12/24 06:28:32;;;;;;;11.20;3.35;;;15.10;96.90;;;;;;5068826;28;20047;-67
2022/12/24 06:30:58;;;;;;;9.68;3.10;;;15.00;98.10;;;;;;5072902;28;20087;-68
2022/12/24 06:33:24;;;;;;;11.88;3.00;;;15.00;98.10;;;;;;5041038;28;20053;-67
2022/12/24 06:35:49;;;;;;;13.55;3.47;;;15.00;98.00;;;;;;5037106;28;20045;-67
2022/12/24 06:38:15;;;;;;;13.95;3.75;;;15.10;96.40;;;;;;5050446;28;20049;-68
2022/12/24 06:40:42;;;;;;;11.88;3.13;;;15.30;98.10;;;;;;5072355;28;20095;-69
2022/12/24 06:43:08;;;;;;;13.18;3.88;;;15.10;98.10;;;;;;5050546;28;20498;-69
2022/12/24 06:45:34;;;;;;;11.35;3.15;;;14.90;96.90;;;;;;5033712;28;20041;-67
2022/12/24 06:48:00;;;;;;;13.60;3.55;;;;;;;;;;5033071;28;20059;-68
2022/12/24 06:50:26;;;;;;;11.48;3.88;;;15.00;98.10;;;;;;5059376;28;20090;-66
2022/12/24 06:52:52;;;;;;;12.48;3.30;;;15.10;98.10;;;;;;5063739;28;20076;-67
2022/12/24 06:55:17;;;;;;;15.77;4.00;;;15.10;98.10;;;;;;5035792;28;20041;-68
2022/12/24 06:57:43;;;;;;;11.50;3.00;;;15.30;98.10;;;;;;5037024;28;20026;-67
2022/12/24 07:00:10;;;;;;;15.30;3.30;;;15.00;98.20;;;;;;5052789;28;20036;-67
2022/12/24 07:02:39;;;;;;;11.35;3.40;;;15.00;98.00;;;;;;5073203;28;20043;-69
2022/12/24 07:05:06;;;;;;;10.15;3.50;;;15.00;96.90;;;;;;5076590;28;20155;-67
2022/12/24 07:07:32;;;;;;;16.83;3.55;;;15.10;98.00;;;;;;5068864;28;20067;-69
2022/12/24 07:09:57;;;;;;;11.80;3.10;;;15.00;97.40;;;;;;5054485;28;20045;-71
2022/12/24 07:12:23;;;;;;;16.05;3.90;;;15.10;98.10;;;;;;5036133;28;20553;-70
2022/12/24 07:14:49;;;;;;;11.38;3.30;;;15.10;98.20;;;;;;5053398;28;20072;-68
2022/12/24 07:17:15;;;;;;;15.82;4.13;;;15.00;96.90;;;;;;5056316;28;20048;-67
2022/12/24 07:19:40;;;;;;;11.43;3.67;;;15.20;98.10;;;;;;5057182;28;20041;-68
2022/12/24 07:22:06;;;;;;;13.85;3.13;;;15.20;96.90;;;;;;5075424;28;20048;-68
2022/12/24 07:24:32;;;;;;;11.68;3.13;;;;;;;;;;5056534;28;20061;-74
2022/12/24 07:26:58;;;;;;;12.98;3.28;;;14.90;97.90;;;;;;5047782;28;20499;-69
2022/12/24 07:29:24;;;;;;;12.55;3.75;;;;;;;;;;5035227;28;20128;-64
2022/12/24 07:31:50;;;;;;;15.75;4.30;;;;;;;;;;5066640;28;20086;-72
2022/12/24 07:34:16;;;;;;;11.10;3.45;;;15.10;98.00;;;;;;5075740;28;20037;-68
2022/12/24 07:36:42;;;;;;;14.02;3.60;;;15.20;98.00;;;;;;5072428;28;20040;-67
2022/12/24 07:39:08;;;;;;;16.45;3.60;;;15.20;98.00;;;;;;5049997;28;20037;-67
2022/12/24 07:41:33;;;;;;;14.02;3.55;;;15.20;98.10;;;;;;5075103;28;20045;-68
2022/12/24 07:43:59;;;;;;;12.82;3.45;;;15.00;97.90;;;;;;5064255;28;20049;-70
2022/12/24 07:46:25;;;;;;;13.35;3.53;;;15.20;97.90;;;;;;5034248;28;20053;-69
2022/12/24 07:48:51;;;;;;;14.52;4.07;;;15.40;98.00;;;;;;5073489;28;20076;-70
2022/12/24 07:51:16;;;;;;;13.95;3.25;;;15.40;98.00;;;;;;5072878;28;20040;-68
2022/12/24 07:53:46;;;;;;;13.23;3.80;;;15.10;97.90;;;;;;5072989;28;20123;-68
2022/12/24 07:56:15;;;;;;;14.65;3.58;;;15.10;96.50;;;;;;5072901;28;20052;-70
2022/12/24 07:58:41;;;;;;;12.27;3.30;;;15.20;98.00;;;;;;5075525;28;20141;-68
2022/12/24 08:01:06;;;;;;;15.30;3.85;;;15.10;97.90;;;;;;5046717;28;20045;-70
2022/12/24 08:03:32;;;;;;;18.33;3.95;;;15.20;97.90;;;;;;5054869;28;20044;-69
2022/12/24 08:05:58;;;;;;;13.38;3.80;;;15.10;97.90;;;;;;5071040;28;20088;-68
2022/12/24 08:08:24;;;;;;;15.45;4.10;;;15.40;98.00;;;;;;5064747;28;20087;-68
2022/12/24 08:10:50;;;;;;;11.60;3.83;;;15.30;98.00;;;;;;5053523;28;20134;-73
2022/12/24 08:13:16;;;;;;;14.98;3.50;;;15.20;98.00;;;;;;5055142;28;20564;-68
2022/12/24 08:15:42;;;;;;;14.18;3.40;;;;;;;;;;5054729;28;20053;-71
2022/12/24 08:18:08;;;;;;;15.38;3.95;;;15.00;97.90;;;;;;5050420;28;20395;-68
2022/12/24 08:20:36;;;;;;;15.70;3.58;;;15.30;97.90;;;;;;5059771;28;20087;-69
2022/12/24 08:23:01;;;;;;;12.57;3.40;;;15.40;96.80;;;;;;5054920;28;20126;-69
2022/12/24 08:25:27;;;;;;;15.73;4.07;;;15.20;98.10;;;;;;5054866;28;20471;-69
2022/12/24 08:27:53;;;;;;;16.42;3.85;;;15.20;97.90;;;;;;5065615;28;20048;-70
2022/12/24 08:30:19;;;;;;;18.40;3.90;;;15.20;96.70;;;;;;5074202;28;20512;-68
2022/12/24 08:32:44;;;;;;;20.13;4.80;;;15.30;97.90;;;;;;5074678;28;20041;-70
2022/12/24 08:35:10;;;;;;;15.93;3.83;;;15.30;97.80;;;;;;5061671;28;20041;-73
2022/12/24 08:37:36;;;;;;;13.52;3.53;;;15.40;97.80;;;;;;5050924;28;20041;-74
2022/12/24 08:40:02;;;;;;;13.35;3.33;;;15.20;97.80;;;;;;5074002;28;20048;-70
2022/12/24 08:42:28;;;;;;;14.50;3.88;;;15.40;96.70;;;;;;5074580;28;20043;-72
2022/12/24 08:44:53;;;;;;;13.90;3.33;;;15.30;97.80;;;;;;5073168;28;20390;-72
2022/12/24 08:47:19;;;;;;;13.40;4.45;;;15.30;97.70;;;;;;5054755;28;20056;-70
2022/12/24 08:49:45;;;;;;;14.85;3.72;;;15.40;97.80;;;;;;5072812;28;20482;-71
2022/12/24 08:52:11;;;;;;;12.57;3.80;;;15.30;97.80;;;;;;5058094;28;20053;-67
2022/12/24 08:54:36;;;;;;;12.45;3.97;;;15.30;97.80;;;;;;5032823;28;20049;-72
2022/12/24 08:57:03;;;;;;;15.30;3.42;;;;;;;;;;5034122;28;20049;-71
2022/12/24 08:59:29;;;;;;;13.48;3.78;;;;;;;;;;5063762;28;20044;-71
2022/12/24 09:01:55;;;;;;;13.75;3.47;;;;;;;;;;5073941;28;20098;-70
2022/12/24 09:04:21;;;;;;;18.08;3.53;;;;;;;;;;5074001;28;20110;-71
2022/12/24 09:06:47;;;;;;;11.38;3.95;;;;;;;;;;5065583;28;20059;-64
2022/12/24 09:09:13;;;;;;;12.02;3.20;;;15.30;97.60;;;;;;5058596;28;20124;-67
2022/12/24 09:11:39;;;;;;;14.88;3.75;;;15.30;97.70;;;;;;5044413;28;20537;-70
2022/12/24 09:14:05;;;;;;;15.07;3.58;;;;;;;;;;5060159;28;20041;-63
2022/12/24 09:16:31;;;;;;;16.70;3.80;;;15.30;97.60;;;;;;5066427;28;20433;-73
2022/12/24 09:18:57;;;;;;;15.02;4.50;;;15.40;97.80;;;;;;5040385;28;20051;-72
2022/12/24 09:21:23;;;;;;;14.60;3.85;;;15.20;97.70;;;;;;5033529;28;20080;-67
2022/12/24 09:23:48;;;;;;;13.35;3.38;;;15.40;97.80;;;;;;5056828;28;20076;-67
2022/12/24 09:26:21;;;;;;;15.93;3.45;;;15.60;97.90;;;;;;5058485;28;20080;-67
2022/12/24 09:28:47;;;;;;;11.15;3.53;;;15.30;97.70;;;;;;5057031;28;20413;-70
2022/12/24 09:31:13;;;;;;;16.15;3.58;;;15.50;97.80;;;;;;5069889;28;21110;-67
2022/12/24 09:33:40;;;;;;;12.23;3.70;;;15.40;97.80;;;;;;5053182;28;20037;-67
2022/12/24 09:36:06;;;;;;;14.55;3.28;;;15.30;97.80;;;;;;5053406;28;20490;-69
2022/12/24 09:38:32;;;;;;;14.50;3.63;;;15.40;97.80;;;;;;5053043;28;20135;-69
2022/12/24 09:40:58;;;;;;;12.32;4.38;;;15.50;97.90;;;;;;5053054;28;20478;-69
2022/12/24 09:43:26;;;;;;;13.35;3.78;;;15.50;96.70;;;;;;5066804;28;20127;-68
2022/12/24 09:45:58;;;;;;;21.15;4.10;;;15.20;95.80;;;;;;5070729;28;20055;-67
2022/12/24 09:48:27;;;;;;;15.75;4.35;;;15.50;97.80;;;;;;5071863;28;20398;-68
2022/12/24 09:51:01;;;;;;;17.63;4.07;;;15.50;96.50;;;;;;5070425;28;20405;-69
2022/12/24 09:53:40;;;;;;;16.30;3.53;;;15.60;97.80;;;;;;5058919;28;20040;-68
2022/12/24 09:56:21;;;;;;;19.52;5.05;;;15.50;96.30;;;;;;5070829;28;20044;-74
2022/12/24 09:58:49;;;;;;;17.98;4.45;;;15.30;96.30;;;;;;5000578;28;20049;-70
2022/12/24 10:01:15;;;;;;;16.75;4.45;;;15.50;97.70;;;;;;5031008;28;20045;-68
2022/12/24 10:03:41;;;;;;;15.77;4.45;;;15.60;97.70;;;;;;5036930;28;20051;-68
2022/12/24 10:06:23;;;;;;;18.42;4.53;;;15.30;95.90;;;;;;5071575;28;20123;-67
2022/12/24 10:09:04;;;;;;;14.33;3.50;;;15.50;96.80;;;;;;5034957;28;20060;-67
2022/12/24 10:11:49;;;;;;;17.05;4.05;;;15.20;97.60;;;;;;5038738;28;20041;-68
2022/12/24 10:14:37;;;;;;;14.15;4.40;;;15.60;95.80;;;;;;5054626;28;20056;-68
2022/12/24 10:17:14;;;;;;;13.45;3.63;;;15.50;95.70;;;;;;5059430;28;20050;-67
2022/12/24 10:19:51;;;;;;;14.73;3.70;;;15.60;97.70;;;;;;5031784;28;20053;-67
2022/12/24 10:22:56;;;;;;;17.08;4.57;;;15.70;96.50;;;;;;5032578;28;20045;-68
2022/12/24 10:25:33;;;;;;;15.80;3.95;;;15.60;97.80;;;;;;5036210;28;20048;-66
2022/12/24 10:28:00;;;;;;;12.00;3.28;;;;;;;;;;5050668;28;20474;-70
2022/12/24 10:30:26;;;;;;;19.95;4.57;;;15.80;96.50;;;;;;5066600;28;20383;-66
2022/12/24 10:32:52;;;;;;;17.98;4.35;;;15.80;97.80;;;;;;5072530;28;20071;-65
2022/12/24 10:35:47;;;;;;;14.52;4.00;;;15.70;97.70;;;;;;5045765;28;20045;-67
2022/12/24 10:38:13;;;;;;;16.05;3.67;;;15.80;97.70;;;;;;5031305;28;20076;-64
2022/12/24 10:40:42;;;;;;;20.38;4.82;;;15.80;97.20;;;;;;5035152;28;20443;-67
2022/12/24 10:43:17;;;;;;;23.42;5.05;;;15.50;97.70;;;;;;5052048;28;20120;-67
2022/12/24 10:45:48;;;;;;;18.00;4.70;;;15.70;96.30;;;;;;5038944;28;20042;-68
2022/12/24 10:48:27;;;;;;;14.18;3.63;;;15.70;97.90;;;;;;5035202;28;20128;-66
2022/12/24 10:51:03;;;;;;;15.85;4.00;;;15.80;96.40;;;;;;5004392;28;20443;-68
2022/12/24 10:53:50;;;;;;;15.23;4.03;;;15.80;95.90;;;;;;5036555;28;20053;-67
2022/12/24 10:56:17;;;;;;;15.73;4.55;;;15.70;97.70;;;;;;5026994;28;20040;-67
2022/12/24 10:58:44;;;;;;;16.02;4.03;;;15.70;97.60;;;;;;5061509;28;20033;-66
2022/12/24 11:01:10;;;;;;;18.60;4.18;;;;;;;;;;5068791;28;20478;-67
2022/12/24 11:03:36;;;;;;;11.10;3.67;;;15.70;97.50;;;;;;5066274;28;20044;-68
2022/12/24 11:06:03;;;;;;;18.30;3.65;;;;;;;;;;5056103;28;20451;-67
2022/12/24 11:08:28;;;;;;;15.65;3.40;;;15.40;97.10;;;;;;5050215;28;20080;-67
2022/12/24 11:10:56;;;;;;;15.57;3.75;;;;;;;;;;5053990;28;20080;-66
2022/12/24 11:13:27;;;;;;;13.70;4.07;;;15.80;97.50;;;;;;5054581;28;20045;-68
2022/12/24 11:16:05;;;;;;;19.05;4.22;;;15.70;96.00;;;;;;5034548;28;20041;-67
2022/12/24 11:18:35;;;;;;;19.17;4.30;;;15.80;97.50;;;;;;5055092;28;20107;-67
2022/12/24 11:21:01;;;;;;;16.50;4.40;;;15.90;97.40;;;;;;5068850;28;20059;-68
2022/12/24 11:23:27;;;;;;;17.02;3.83;;;15.80;97.40;;;;;;5065028;28;20119;-68
2022/12/24 11:25:54;;;;;;;19.65;5.35;;;;;;;;;;5029003;28;20053;-70
2022/12/24 11:28:24;;;;;;;20.30;4.47;;;;;;;;;;5058733;28;20399;-67
2022/12/24 11:31:01;;;;;;;15.60;4.65;;;15.80;97.40;;;;;;5048405;28;20467;-67
2022/12/24 11:33:27;;;;;;;16.17;4.53;;;;;;;;;;5055759;28;20453;-68
2022/12/24 11:36:05;;;;;;;18.40;4.13;;;15.90;97.50;;;;;;5053689;28;20041;-66
2022/12/24 11:38:32;;;;;;;19.02;4.47;;;16.00;97.50;;;;;;5054433;28;20051;-78
2022/12/24 11:41:10;;;;;;;15.60;4.00;;;16.10;97.50;;;;;;5036568;28;20053;-67
2022/12/24 11:43:43;;;;;;;13.38;3.60;;;16.20;97.50;;;;;;5035718;28;20085;-69
2022/12/24 11:46:35;;;;;;;15.18;3.65;;;16.00;97.30;;;;;;5033292;28;20045;-75
2022/12/24 11:49:33;;;;;;;18.85;3.83;;;15.70;96.10;;;;;;5074072;28;20084;-78
2022/12/24 11:52:11;;;;;;;14.93;3.95;;;16.00;97.30;;;;;;4977127;28;20141;-67
2022/12/24 11:54:57;;;;;;;15.05;4.13;;;16.20;96.20;;;;;;4990525;28;20086;-67
2022/12/24 11:57:24;;;;;;;14.65;3.83;;;16.00;97.30;;;;;;4976464;28;20054;-66
2022/12/24 11:59:51;;;;;;;15.52;3.90;;;16.10;97.30;;;;;;4965162;28;20054;-67
2022/12/24 12:02:25;;;;;;;14.65;3.65;;;16.00;97.30;;;;;;4957468;28;20070;-75
2022/12/24 12:05:14;;;;;;;11.93;3.45;;;16.00;96.00;;;;;;4974168;28;20146;-77
2022/12/24 12:07:40;;;;;;;15.73;3.60;;;16.00;97.30;;;;;;4960242;28;20057;-77
2022/12/24 12:10:20;;;;;;;14.55;3.90;;;16.20;96.10;;;;;;4977308;28;20133;-67
2022/12/24 12:13:04;;;;;;;16.85;3.42;;;15.80;96.00;;;;;;4977330;28;20042;-67
2022/12/24 12:15:34;;;;;;;18.27;3.60;;;;;;;;;;4991467;28;20050;-77
2022/12/24 12:18:20;;;;;;;13.07;3.97;;;16.00;96.00;;;;;;4978375;28;20042;-67
2022/12/24 12:20:51;;;;;;;13.00;3.35;;;15.90;96.00;;;;;;4993074;28;20069;-67
2022/12/24 12:23:27;;;;;;;12.63;3.20;;;16.00;97.20;;;;;;4961026;28;20038;-67
2022/12/24 12:26:07;;;;;;;12.05;3.72;;;16.00;97.20;;;;;;4993068;28;20543;-69
2022/12/24 12:28:42;;;;;;;15.27;3.85;;;16.00;97.20;;;;;;5059833;28;20154;-67
2022/12/24 12:31:08;;;;;;;11.82;3.10;;;;;;;;;;5070414;28;20048;-67
2022/12/24 12:33:51;;;;;;;13.43;3.47;;;16.00;95.20;;;;;;5052181;28;20044;-68
2022/12/24 12:36:20;;;;;;;15.93;4.05;;;15.90;97.20;;;;;;5053309;28;20101;-69
2022/12/24 12:38:46;;;;;;;19.13;3.72;;;16.10;97.30;;;;;;5020251;28;20041;-67
2022/12/24 12:41:18;;;;;;;16.10;3.00;;;15.80;97.20;;;;;;5053107;28;20048;-67
2022/12/24 12:44:14;;;;;;;14.23;3.72;;;16.10;95.50;;;;;;5054571;28;20045;-69
2022/12/24 12:47:04;;;;;;;15.70;3.83;;;16.20;95.60;;;;;;5053968;28;20049;-67
2022/12/24 12:50:01;;;;;;;10.75;3.40;;;16.00;95.40;;;;;;5053486;28;20048;-69
2022/12/24 12:52:47;;;;;;;11.15;3.10;;;16.00;97.20;;;;;;5053847;28;20053;-69
2022/12/24 12:55:46;;;;;;;13.23;3.97;;;16.00;97.20;;;;;;5052950;28;20049;-67
2022/12/24 12:58:24;;;;;;;14.10;3.03;;;16.30;96.00;;;;;;5054262;28;20426;-67
2022/12/24 13:00:51;;;;;;;14.70;3.25;;;;;;;;;;5020435;28;20053;-70
2022/12/24 13:03:19;;;;;;;10.38;3.00;;;16.20;97.20;;;;;;5052669;28;20037;-66
2022/12/24 13:05:46;;;;;;;13.18;3.45;;;;;;;;;;5034462;28;20054;-68
2022/12/24 13:08:35;;;;;;;15.13;3.35;;;16.00;96.00;;;;;;5034234;28;20057;-68
2022/12/24 13:11:25;;;;;;;11.02;3.05;;;16.00;95.40;;;;;;5013829;28;20139;-67
2022/12/24 13:13:52;;;;;;;13.93;4.63;;;;;;;;;;5034130;28;20087;-67